Time;durP1;ratioP1;P1;durP2;ratioP2;P2;SDS_P1;SDS_P2;PMS_P1;PMS_P2;Temp;Humidity;BMP_temperature;BMP_pressure;BME280_temperature;BME280_humidity;BME280_pressure;Samples;Min_cycle;Max_cycle;Signal;HPM_P1;HPM_P2
2022/04/15 00:01:43;;;;;;;;;;;;;;;20.79;47.06;101541.63;5008447;28;4242;-58
2022/04/15 00:04:09;;;;;;;;;;;;;;;20.77;47.04;101545.13;5012145;28;4320;-59
2022/04/15 00:06:36;;;;;;;;;;;;;;;20.79;47.16;101553.16;5008514;28;5248;-58
2022/04/15 00:09:03;;;;;;;;;;;;;;;20.78;47.12;101545.91;5009037;28;4347;-59
2022/04/15 00:11:30;;;;;;;;;;;;;;;20.77;47.06;101545.13;5008004;28;4547;-59
2022/04/15 00:13:57;;;;;;;;;;;;;;;20.76;47.15;101537.91;5010234;28;4104;-58
2022/04/15 00:16:23;;;;;;;;;;;;;;;20.76;47.04;101543.66;5014644;28;5247;-59
2022/04/15 00:18:50;;;;;;;;;;;;;;;20.75;47.15;101542.16;5014514;28;4033;-59
2022/04/15 00:21:16;;;;;;;;;;;;;;;20.75;47.14;101542.16;5009458;28;4322;-59
2022/04/15 00:23:43;;;;;;;;;;;;;;;20.74;47.03;101546.41;5008986;28;4230;-58
2022/04/15 00:26:09;;;;;;;;;;;;;;;20.74;47.08;101546.41;5017583;28;4236;-59
2022/04/15 00:28:36;;;;;;;;;;;;;;;20.74;47.16;101540.66;5016799;28;5320;-59
2022/04/15 00:31:02;;;;;;;;;;;;;;;20.73;47.16;101538.41;5014116;28;4210;-58
2022/04/15 00:33:29;;;;;;;;;;;;;;;20.73;47.06;101539.19;5014705;28;4304;-59
2022/04/15 00:35:55;;;;;;;;;;;;;;;20.73;47.09;101538.41;5017767;28;4260;-58
2022/04/15 00:38:21;;;;;;;;;;;;;;;20.71;47.06;101536.94;4995960;28;4541;-59
2022/04/15 00:40:48;;;;;;;;;;;;;;;20.71;47.19;101536.19;5009298;28;5275;-58
2022/04/15 00:43:14;;;;;;;;;;;;;;;20.72;47.10;101537.66;5011314;28;4274;-58
2022/04/15 00:45:45;;;;;;;;;;;;;;;20.71;47.10;101530.44;5016406;28;4165;-59
2022/04/15 00:48:11;;;;;;;;;;;;;;;20.71;47.08;101536.19;5013603;28;6175;-59
2022/04/15 00:50:37;;;;;;;;;;;;;;;20.71;47.08;101534.06;4997593;28;4242;-58
2022/04/15 00:53:07;;;;;;;;;;;;;;;20.70;47.05;101540.44;5010987;28;4352;-58
2022/04/15 00:55:34;;;;;;;;;;;;;;;20.70;47.05;101534.69;5015511;28;5423;-58
2022/04/15 00:58:00;;;;;;;;;;;;;;;20.70;47.08;101540.44;5014890;28;4111;-59
2022/04/15 01:00:27;;;;;;;;;;;;;;;20.69;46.89;101550.47;5014864;28;4095;-58
2022/04/15 01:02:55;;;;;;;;;;;;;;;20.68;47.02;101543.19;5010563;28;5146;-58
2022/04/15 01:05:22;;;;;;;;;;;;;;;20.70;47.10;101546.19;5014235;28;5271;-58
2022/04/15 01:07:49;;;;;;;;;;;;;;;20.69;47.09;101547.59;5010713;28;4999;-59
2022/04/15 01:10:15;;;;;;;;;;;;;;;20.69;47.03;101550.47;5010614;28;5490;-59
2022/04/15 01:12:43;;;;;;;;;;;;;;;20.69;46.92;101556.22;5009557;28;4385;-59
2022/04/15 01:15:29;;;;;;;;;;;;;;;20.69;47.00;101559.09;5013669;28;4090;-59
2022/04/15 01:17:56;;;;;;;;;;;;;;;20.68;46.95;101569.09;4995202;28;4131;-59
2022/04/15 01:20:22;;;;;;;;;;;;;;;20.67;47.00;101567.63;5009111;28;4171;-58
2022/04/15 01:23:07;;;;;;;;;;;;;;;20.67;47.01;101570.50;5010802;28;4226;-58
2022/04/15 01:25:33;;;;;;;;;;;;;;;20.65;46.89;101579.00;4991837;28;4351;-59
2022/04/15 01:28:00;;;;;;;;;;;;;;;20.66;46.93;101574.72;4998039;28;4151;-59
2022/04/15 01:30:26;;;;;;;;;;;;;;;20.65;46.98;101579.00;5005569;28;4062;-58
2022/04/15 01:32:53;;;;;;;;;;;;;;;20.64;46.76;101581.13;5011907;28;4231;-59
2022/04/15 01:35:23;;;;;;;;;;;;;;;20.65;46.89;101579.00;5011322;28;4136;-58
2022/04/15 01:37:49;;;;;;;;;;;;;;;20.64;46.80;101577.53;5009847;28;4231;-58
2022/04/15 01:40:16;;;;;;;;;;;;;;;20.64;46.88;101577.53;5007358;28;4277;-58
2022/04/15 01:42:43;;;;;;;;;;;;;;;20.64;46.77;101571.78;5015849;28;4185;-59
2022/04/15 01:45:09;;;;;;;;;;;;;;;20.62;46.86;101563.75;5015712;28;4512;-59
2022/04/15 01:47:36;;;;;;;;;;;;;;;20.62;46.88;101580.28;5013068;28;4262;-59
2022/04/15 01:50:05;;;;;;;;;;;;;;;20.61;46.73;101582.38;5010032;28;4733;-59
2022/04/15 01:52:32;;;;;;;;;;;;;;;20.62;46.81;101574.53;5009578;28;4266;-59
2022/04/15 01:54:58;;;;;;;;;;;;;;;20.61;46.68;101578.78;5008658;28;4610;-58
2022/04/15 01:57:25;;;;;;;;;;;;;;;20.62;46.75;101583.16;5012821;28;4178;-58
2022/04/15 01:59:51;;;;;;;;;;;;;;;20.62;46.69;101580.28;5014243;28;4236;-58
2022/04/15 02:02:17;;;;;;;;;;;;;;;20.61;46.73;101587.41;5015439;28;4152;-58
2022/04/15 02:04:44;;;;;;;;;;;;;;;20.60;46.71;101586.66;5015664;28;4260;-58
2022/04/15 02:07:10;;;;;;;;;;;;;;;20.60;46.73;101589.53;5015718;28;4686;-58
2022/04/15 02:09:36;;;;;;;;;;;;;;;20.60;46.68;101583.03;5013724;28;4014;-58
2022/04/15 02:12:03;;;;;;;;;;;;;;;20.59;46.66;101590.94;5012117;28;5794;-58
2022/04/15 02:14:29;;;;;;;;;;;;;;;20.59;46.74;101582.31;5013910;28;4369;-59
2022/04/15 02:16:57;;;;;;;;;;;;;;;20.60;46.63;101588.78;5010899;28;4251;-59
2022/04/15 02:19:23;;;;;;;;;;;;;;;20.59;46.66;101587.28;5012808;28;4189;-58
2022/04/15 02:21:50;;;;;;;;;;;;;;;20.58;46.74;101588.69;5011067;28;5157;-59
2022/04/15 02:24:16;;;;;;;;;;;;;;;20.57;46.62;101584.28;5009624;28;4322;-58
2022/04/15 02:26:43;;;;;;;;;;;;;;;20.57;46.56;101584.28;5010110;28;5349;-59
2022/04/15 02:29:09;;;;;;;;;;;;;;;20.57;46.56;101587.16;5015085;28;4196;-59
2022/04/15 02:31:35;;;;;;;;;;;;;;;20.54;46.60;101586.28;5013474;28;4162;-59
2022/04/15 02:34:02;;;;;;;;;;;;;;;20.55;46.51;101587.03;5012652;28;5196;-60
2022/04/15 02:36:28;;;;;;;;;;;;;;;20.56;46.54;101588.53;5013067;28;6479;-59
2022/04/15 02:38:54;;;;;;;;;;;;;;;20.54;46.55;101585.53;5004514;28;5399;-59
2022/04/15 02:41:21;;;;;;;;;;;;;;;20.54;46.43;101585.53;5007245;28;5610;-59
2022/04/15 02:43:47;;;;;;;;;;;;;;;20.53;46.48;101590.53;5016047;28;4416;-59
2022/04/15 02:46:13;;;;;;;;;;;;;;;20.51;46.54;101588.28;4992622;28;4378;-59
2022/04/15 02:48:40;;;;;;;;;;;;;;;20.51;46.52;101591.16;5012202;28;4260;-59
2022/04/15 02:51:07;;;;;;;;;;;;;;;20.51;46.49;101588.28;5014847;28;4389;-61
2022/04/15 02:53:33;;;;;;;;;;;;;;;20.56;46.27;101594.28;5014089;28;4376;-59
2022/04/15 02:56:00;;;;;;;;;;;;;;;20.60;46.27;101595.28;5012264;28;4074;-59
2022/04/15 02:58:26;;;;;;;;;;;;;;;20.61;46.13;101590.28;5010051;28;4368;-59
2022/04/15 03:00:53;;;;;;;;;;;;;;;20.63;46.22;101596.16;5014143;28;4198;-59
2022/04/15 03:03:20;;;;;;;;;;;;;;;20.64;46.24;101600.53;5008851;28;5843;-59
2022/04/15 03:05:47;;;;;;;;;;;;;;;20.65;46.40;101599.16;5010487;28;5585;-59
2022/04/15 03:08:13;;;;;;;;;;;;;;;20.66;46.42;101603.50;5009483;28;5335;-58
2022/04/15 03:10:39;;;;;;;;;;;;;;;20.67;46.31;101591.38;5014088;28;4433;-59
2022/04/15 03:13:06;;;;;;;;;;;;;;;20.68;46.32;101601.53;5012675;28;4221;-59
2022/04/15 03:15:33;;;;;;;;;;;;;;;20.68;46.34;101595.00;5015844;28;4187;-59
2022/04/15 03:17:59;;;;;;;;;;;;;;;20.68;46.30;101607.28;5009971;28;4097;-58
2022/04/15 03:20:26;;;;;;;;;;;;;;;20.66;46.42;101598.53;5013540;28;4228;-59
2022/04/15 03:22:52;;;;;;;;;;;;;;;20.70;46.39;101600.88;5011752;28;4257;-58
2022/04/15 03:25:23;;;;;;;;;;;;;;;20.71;46.29;101605.25;5010922;28;4466;-58
2022/04/15 03:27:49;;;;;;;;;;;;;;;20.72;46.31;101606.75;5014742;28;4261;-59
2022/04/15 03:30:16;;;;;;;;;;;;;;;20.74;46.28;101612.63;5009246;28;4096;-60
2022/04/15 03:32:48;;;;;;;;;;;;;;;20.74;46.16;101609.00;5014754;28;4122;-59
2022/04/15 03:35:15;;;;;;;;;;;;;;;20.75;46.34;101604.72;5014445;28;4298;-60
2022/04/15 03:37:41;;;;;;;;;;;;;;;20.75;46.27;101611.22;4999018;28;5335;-60
2022/04/15 03:40:08;;;;;;;;;;;;;;;20.74;46.31;101591.72;5011301;28;4241;-60
2022/04/15 03:42:47;;;;;;;;;;;;;;;20.74;46.41;101603.25;5010939;28;4168;-60
2022/04/15 03:45:14;;;;;;;;;;;;;;;20.73;46.41;101596.75;5011282;28;4454;-60
2022/04/15 03:47:41;;;;;;;;;;;;;;;20.76;46.34;101597.59;5016586;28;4052;-60
2022/04/15 03:50:09;;;;;;;;;;;;;;;20.74;46.38;101603.25;5009810;28;5267;-60
2022/04/15 03:52:38;;;;;;;;;;;;;;;20.75;46.34;101604.72;5010804;28;4219;-60
2022/04/15 03:55:11;;;;;;;;;;;;;;;20.74;46.14;101609.75;5010725;28;5243;-60
2022/04/15 03:57:37;;;;;;;;;;;;;;;20.76;46.16;101612.75;5014526;28;4193;-59
2022/04/15 04:00:07;;;;;;;;;;;;;;;20.77;46.21;101608.47;5012784;28;4117;-60
2022/04/15 04:02:33;;;;;;;;;;;;;;;20.78;46.27;101609.25;5013577;28;4252;-60
2022/04/15 04:05:00;;;;;;;;;;;;;;;20.78;46.23;101615.00;5013005;28;4113;-59
2022/04/15 04:07:26;;;;;;;;;;;;;;;20.79;46.29;101614.34;5011818;28;4337;-59
2022/04/15 04:09:53;;;;;;;;;;;;;;;20.78;46.38;101615.72;5009762;28;4188;-60
2022/04/15 04:12:19;;;;;;;;;;;;;;;20.80;46.29;101626.59;5012965;28;4183;-60
2022/04/15 04:14:45;;;;;;;;;;;;;;;20.81;46.21;101631.00;5008650;28;4376;-60
2022/04/15 04:17:12;;;;;;;;;;;;;;;20.81;46.29;101628.09;5012173;28;4495;-59
2022/04/15 04:19:38;;;;;;;;;;;;;;;20.80;46.29;101630.25;5011788;28;4080;-59
2022/04/15 04:22:10;;;;;;;;;;;;;;;20.81;46.24;101637.50;5003980;28;4299;-60
2022/04/15 04:24:37;;;;;;;;;;;;;;;20.79;46.13;101634.50;5011183;28;4185;-60
2022/04/15 04:27:03;;;;;;;;;;;;;;;20.80;46.18;101636.00;5013238;28;4241;-59
2022/04/15 04:29:29;;;;;;;;;;;;;;;20.80;46.15;101629.47;5007704;28;4251;-59
2022/04/15 04:31:56;;;;;;;;;;;;;;;20.79;46.14;101639.50;5011541;28;4246;-59
2022/04/15 04:34:22;;;;;;;;;;;;;;;20.80;46.19;101636.00;5010422;28;4428;-59
2022/04/15 04:36:49;;;;;;;;;;;;;;;20.81;46.11;101640.38;5014883;28;5691;-59
2022/04/15 04:39:15;;;;;;;;;;;;;;;20.81;46.13;101649.00;5007353;28;4389;-59
2022/04/15 04:41:41;;;;;;;;;;;;;;;20.82;46.08;101656.28;5004158;28;4362;-60
2022/04/15 04:44:08;;;;;;;;;;;;;;;20.82;46.25;101650.50;5008892;28;4188;-60
2022/04/15 04:46:34;;;;;;;;;;;;;;;20.83;46.22;101652.00;4996301;28;4088;-59
2022/04/15 04:49:01;;;;;;;;;;;;;;;20.81;46.22;101660.50;5012680;28;4071;-59
2022/04/15 04:51:27;;;;;;;;;;;;;;;20.81;46.25;101657.63;5010511;28;4049;-59
2022/04/15 04:53:53;;;;;;;;;;;;;;;20.81;46.23;101657.63;4992965;28;4255;-60
2022/04/15 04:56:39;;;;;;;;;;;;;;;20.83;46.28;101663.50;5015045;28;4209;-60
2022/04/15 04:59:05;;;;;;;;;;;;;;;20.83;46.09;101663.50;5004680;28;5299;-60
2022/04/15 05:01:32;;;;;;;;;;;;;;;20.79;46.13;101669.03;5010617;28;4301;-59
2022/04/15 05:03:58;;;;;;;;;;;;;;;20.82;46.13;101670.66;5012458;28;4252;-59
2022/04/15 05:06:25;;;;;;;;;;;;;;;20.85;46.09;101683.78;5010126;28;4284;-60
2022/04/15 05:08:51;;;;;;;;;;;;;;;20.84;46.22;101670.00;5010625;28;4266;-59
2022/04/15 05:11:17;;;;;;;;;;;;;;;20.83;46.08;101669.28;5011599;28;4697;-60
2022/04/15 05:13:44;;;;;;;;;;;;;;;20.86;46.05;101661.50;5009785;28;4547;-60
2022/04/15 05:16:10;;;;;;;;;;;;;;;20.84;46.23;101670.00;5013952;28;5373;-60
2022/04/15 05:18:36;;;;;;;;;;;;;;;20.81;46.21;101677.78;5013979;28;4414;-60
2022/04/15 05:21:03;;;;;;;;;;;;;;;20.85;46.13;101678.03;5014308;28;4263;-60
2022/04/15 05:23:29;;;;;;;;;;;;;;;20.85;46.16;101683.03;5016807;28;4152;-59
2022/04/15 05:25:55;;;;;;;;;;;;;;;20.84;46.20;101679.38;5016514;28;4103;-59
2022/04/15 05:28:22;;;;;;;;;;;;;;;20.85;45.91;101683.78;5011977;28;5358;-60
2022/04/15 05:30:48;;;;;;;;;;;;;;;20.86;46.07;101687.41;5007022;28;4429;-59
2022/04/15 05:33:15;;;;;;;;;;;;;;;20.86;46.09;101688.16;5004358;28;4082;-59
2022/04/15 05:35:41;;;;;;;;;;;;;;;20.86;46.02;101682.38;5007164;28;4092;-60
2022/04/15 05:38:08;;;;;;;;;;;;;;;20.86;46.18;101690.28;5010248;28;6229;-59
2022/04/15 05:40:34;;;;;;;;;;;;;;;20.85;46.11;101686.66;5013847;28;4247;-59
2022/04/15 05:43:01;;;;;;;;;;;;;;;20.86;46.11;101679.50;5013722;28;4233;-60
2022/04/15 05:45:28;;;;;;;;;;;;;;;20.86;46.12;101688.16;5009706;28;4256;-59
2022/04/15 05:47:57;;;;;;;;;;;;;;;20.83;46.27;101682.91;5015242;28;4487;-59
2022/04/15 05:50:24;;;;;;;;;;;;;;;20.82;46.27;101678.53;5012438;28;4452;-59
2022/04/15 05:52:50;;;;;;;;;;;;;;;20.85;46.16;101695.31;5014649;28;4274;-59
2022/04/15 05:55:17;;;;;;;;;;;;;;;20.88;46.11;101701.91;5016888;28;5322;-59
2022/04/15 05:57:43;;;;;;;;;;;;;;;20.89;46.08;101706.28;5017551;28;4510;-59
2022/04/15 06:00:09;;;;;;;;;;;;;;;20.90;46.05;101719.31;5013364;28;4215;-59
2022/04/15 06:02:39;;;;;;;;;;;;;;;20.88;46.08;101716.31;5008617;28;4123;-59
2022/04/15 06:05:05;;;;;;;;;;;;;;;20.85;46.21;101724.09;5013752;28;4211;-59
2022/04/15 06:07:32;;;;;;;;;;;;;;;20.88;45.92;101716.31;5010355;28;5607;-59
2022/04/15 06:09:58;;;;;;;;;;;;;;;20.88;45.97;101717.06;5012894;28;4527;-59
2022/04/15 06:12:54;;;;;;;;;;;;;;;20.88;46.00;101719.94;5007200;28;4255;-59
2022/04/15 06:15:21;;;;;;;;;;;;;;;20.87;45.98;101715.56;5013392;28;4216;-59
2022/04/15 06:17:48;;;;;;;;;;;;;;;20.89;45.91;101720.69;5014258;28;4556;-59
2022/04/15 06:20:15;;;;;;;;;;;;;;;20.89;46.04;101718.56;5011811;28;4401;-59
2022/04/15 06:22:42;;;;;;;;;;;;;;;20.91;46.01;101712.94;5013453;28;4307;-59
2022/04/15 06:25:08;;;;;;;;;;;;;;;20.91;46.03;101723.69;5010016;28;4268;-59
2022/04/15 06:27:34;;;;;;;;;;;;;;;20.89;46.06;101724.31;5014080;28;4697;-59
2022/04/15 06:30:01;;;;;;;;;;;;;;;20.91;46.09;101720.81;5013731;28;4249;-59
2022/04/15 06:32:27;;;;;;;;;;;;;;;20.91;46.06;101720.81;5009838;28;4200;-59
2022/04/15 06:34:53;;;;;;;;;;;;;;;20.89;46.08;101730.09;5009705;28;3997;-59
2022/04/15 06:37:20;;;;;;;;;;;;;;;20.89;46.04;101730.09;5011668;28;4237;-60
2022/04/15 06:39:50;;;;;;;;;;;;;;;20.90;46.02;101728.69;5013262;28;4194;-59
2022/04/15 06:42:35;;;;;;;;;;;;;;;20.90;45.97;101731.56;5012714;28;4235;-59
2022/04/15 06:45:02;;;;;;;;;;;;;;;20.91;45.69;101730.22;5003942;28;4134;-64
2022/04/15 06:47:28;;;;;;;;;;;;;;;20.91;45.89;101738.84;4999696;28;4064;-59
2022/04/15 06:49:54;;;;;;;;;;;;;;;20.89;46.00;101741.59;5010179;28;4351;-59
2022/04/15 06:52:21;;;;;;;;;;;;;;;20.90;46.04;101737.34;5005959;28;4353;-59
2022/04/15 06:54:47;;;;;;;;;;;;;;;20.90;45.84;101737.34;5007599;28;5293;-59
2022/04/15 06:57:13;;;;;;;;;;;;;;;20.91;45.97;101741.72;5008226;28;4302;-59
2022/04/15 06:59:40;;;;;;;;;;;;;;;20.89;46.00;101747.34;5008553;28;4744;-59
2022/04/15 07:02:06;;;;;;;;;;;;;;;20.74;45.69;101742.16;5007098;28;5175;-60
2022/04/15 07:04:33;;;;;;;;;;;;;;;20.62;45.12;101741.44;4999868;28;4284;-60
2022/04/15 07:06:59;;;;;;;;;;;;;;;20.58;44.99;101744.06;5005333;28;4321;-60
2022/04/15 07:09:25;;;;;;;;;;;;;;;20.59;45.73;101742.69;5003932;28;4633;-60
2022/04/15 07:11:52;;;;;;;;;;;;;;;20.66;46.08;101750.28;5010549;28;4311;-60
2022/04/15 07:14:18;;;;;;;;;;;;;;;20.78;46.27;101753.16;5017490;28;4321;-60
2022/04/15 07:16:44;;;;;;;;;;;;;;;20.61;46.51;101748.56;5011475;28;4390;-61
2022/04/15 07:19:11;;;;;;;;;;;;;;;20.76;46.85;101759.53;5014861;28;4419;-60
2022/04/15 07:21:37;;;;;;;;;;;;;;;20.82;46.54;101750.50;5007603;28;4018;-60
2022/04/15 07:24:04;;;;;;;;;;;;;;;20.68;46.82;101756.94;5008139;28;4131;-60
2022/04/15 07:26:30;;;;;;;;;;;;;;;20.51;46.94;101752.28;5013490;28;4141;-60
2022/04/15 07:28:57;;;;;;;;;;;;;;;20.62;46.71;101752.94;5010956;28;5437;-60
2022/04/15 07:31:23;;;;;;;;;;;;;;;20.46;46.78;101764.94;5010610;28;4176;-60
2022/04/15 07:33:50;;;;;;;;;;;;;;;20.68;46.35;101767.69;5007731;28;4241;-60
2022/04/15 07:36:44;;;;;;;;;;;;;;;20.82;46.50;101770.66;5005793;28;5022;-61
2022/04/15 07:39:11;;;;;;;;;;;;;;;20.51;46.83;101765.94;5009385;28;4731;-60
2022/04/15 07:41:37;;;;;;;;;;;;;;;20.65;46.92;101760.31;5004249;28;4270;-60
2022/04/15 07:44:07;;;;;;;;;;;;;;;20.72;46.80;101759.28;5006884;28;4062;-60
2022/04/15 07:46:33;;;;;;;;;;;;;;;20.85;46.64;101763.66;5009286;28;5337;-60
2022/04/15 07:49:00;;;;;;;;;;;;;;;20.87;46.61;101770.28;5005637;28;4256;-63
2022/04/15 07:51:28;;;;;;;;;;;;;;;20.75;45.93;101775.28;5004788;28;4377;-59
2022/04/15 07:53:54;;;;;;;;;;;;;;;20.73;46.10;101766.56;5002682;28;4479;-58
2022/04/15 07:56:21;;;;;;;;;;;;;;;20.81;46.12;101772.78;4998841;28;4402;-58
2022/04/15 07:58:47;;;;;;;;;;;;;;;20.86;46.20;101774.50;5009571;28;4611;-58
2022/04/15 08:01:14;;;;;;;;;;;;;;;20.86;46.85;101770.88;5008545;28;4251;-59
2022/04/15 08:03:40;;;;;;;;;;;;;;;20.85;46.82;101775.91;5013361;28;5164;-59
2022/04/15 08:06:07;;;;;;;;;;;;;;;20.87;46.81;101784.66;4992361;28;5467;-59
2022/04/15 08:08:33;;;;;;;;;;;;;;;20.86;46.87;101777.41;5012419;28;4511;-57
2022/04/15 08:10:59;;;;;;;;;;;;;;;20.87;46.83;101784.66;5015029;28;4517;-58
2022/04/15 08:13:26;;;;;;;;;;;;;;;20.90;46.90;101789.16;5016360;28;4227;-57
2022/04/15 08:15:53;;;;;;;;;;;;;;;20.90;46.66;101789.16;5009349;28;4179;-58
2022/04/15 08:18:20;;;;;;;;;;;;;;;20.89;46.83;101792.66;5004425;28;4081;-58
2022/04/15 08:20:46;;;;;;;;;;;;;;;20.92;46.89;101797.16;5008175;28;4166;-59
2022/04/15 08:23:13;;;;;;;;;;;;;;;20.91;46.77;101790.66;5008380;28;5535;-59
2022/04/15 08:25:39;;;;;;;;;;;;;;;20.91;46.99;101802.19;5013162;28;5315;-59
2022/04/15 08:28:06;;;;;;;;;;;;;;;20.91;46.93;101802.19;5003379;28;4187;-59
2022/04/15 08:30:33;;;;;;;;;;;;;;;20.91;46.97;101795.66;5009778;28;3986;-59
2022/04/15 08:33:00;;;;;;;;;;;;;;;20.90;46.99;101797.78;5011450;28;4275;-59
2022/04/15 08:35:26;;;;;;;;;;;;;;;20.90;47.00;101799.94;5011194;28;4098;-59
2022/04/15 08:37:53;;;;;;;;;;;;;;;20.90;47.05;101802.81;5011356;28;4280;-59
2022/04/15 08:40:19;;;;;;;;;;;;;;;20.91;46.94;101807.94;5009192;28;4198;-58
2022/04/15 08:42:45;;;;;;;;;;;;;;;20.90;46.81;101811.44;5001138;28;4714;-58
2022/04/15 08:45:15;;;;;;;;;;;;;;;20.90;46.88;101797.78;5003372;28;4203;-58
2022/04/15 08:47:41;;;;;;;;;;;;;;;20.71;45.74;101812.50;5007828;28;4225;-61
2022/04/15 08:50:08;;;;;;;;;;;;;;;20.57;45.93;101815.25;5010462;28;4287;-56
2022/04/15 08:52:34;;;;;;;;;;;;;;;20.65;45.78;101815.75;5012741;28;4120;-57
2022/04/15 08:55:00;;;;;;;;;;;;;;;20.76;45.78;101814.22;5016697;28;4174;-55
2022/04/15 08:57:27;;;;;;;;;;;;;;;20.82;46.05;101822.47;5013341;28;4333;-55
2022/04/15 08:59:54;;;;;;;;;;;;;;;20.82;46.49;101829.00;5011507;28;4119;-55
2022/04/15 09:02:33;;;;;;;;;;;;;;;20.85;46.64;101830.59;5006569;28;4241;-54
2022/04/15 09:05:00;;;;;;;;;;;;;;;20.89;46.23;101832.97;5006782;28;5569;-57
2022/04/15 09:07:29;;;;;;;;;;;;;;;20.84;45.89;101831.97;5007133;28;4187;-55
2022/04/15 09:10:02;;;;;;;;;;;;;;;20.83;46.37;101835.50;5012272;28;4643;-55
2022/04/15 09:12:29;;;;;;;;;;;;;;;20.85;46.76;101832.75;5009766;28;4179;-56
2022/04/15 09:14:58;;;;;;;;;;;;;;;20.90;46.62;101840.97;5009651;28;4052;-55
2022/04/15 09:17:40;;;;;;;;;;;;;;;20.89;47.41;101841.59;5012677;28;4155;-51
2022/04/15 09:20:07;;;;;;;;;;;;;;;20.90;46.75;101840.97;5011319;28;4250;-52
2022/04/15 09:22:33;;;;;;;;;;;;;;;20.92;47.16;101851.88;5013445;28;4269;-53
2022/04/15 09:24:59;;;;;;;;;;;;;;;20.93;47.58;101851.22;5012401;28;4328;-51
2022/04/15 09:27:26;;;;;;;;;;;;;;;20.96;47.57;101854.22;5011006;28;4018;-53
2022/04/15 09:29:54;;;;;;;;;;;;;;;20.95;47.60;101847.72;5011894;28;4275;-52
2022/04/15 09:32:22;;;;;;;;;;;;;;;20.97;47.96;101856.50;5013811;28;4219;-55
2022/04/15 09:34:54;;;;;;;;;;;;;;;20.97;48.10;101852.88;5007868;28;4151;-53
2022/04/15 09:37:21;;;;;;;;;;;;;;;20.98;47.78;101857.22;5011618;28;5553;-53
2022/04/15 09:40:06;;;;;;;;;;;;;;;20.98;47.45;101851.47;5012695;28;4358;-52
2022/04/15 09:42:36;;;;;;;;;;;;;;;20.98;47.81;101857.22;5009357;28;4191;-54
2022/04/15 09:45:12;;;;;;;;;;;;;;;20.99;47.91;101859.50;5011031;28;4052;-56
2022/04/15 09:47:39;;;;;;;;;;;;;;;20.99;47.73;101853.75;5003729;28;4137;-52
2022/04/15 09:50:26;;;;;;;;;;;;;;;21.01;47.72;101858.88;5010301;28;5324;-50
2022/04/15 09:53:16;;;;;;;;;;;;;;;21.01;48.02;101858.88;5008688;28;4254;-53
2022/04/15 09:55:43;;;;;;;;;;;;;;;21.02;47.84;101866.13;5000463;28;5247;-52
2022/04/15 09:58:16;;;;;;;;;;;;;;;21.01;47.90;101870.41;5011942;28;4080;-49
2022/04/15 10:00:43;;;;;;;;;;;;;;;21.01;48.36;101861.75;5015765;28;4197;-49
2022/04/15 10:03:11;;;;;;;;;;;;;;;21.01;48.48;101871.13;5008462;28;4670;-53
2022/04/15 10:05:38;;;;;;;;;;;;;;;21.01;48.74;101873.28;5003103;28;4239;-53
2022/04/15 10:08:05;;;;;;;;;;;;;;;20.99;48.61;101873.16;5005706;28;4249;-50
2022/04/15 10:10:32;;;;;;;;;;;;;;;21.01;48.62;101876.16;5006934;28;5244;-52
2022/04/15 10:12:58;;;;;;;;;;;;;;;21.03;48.38;101873.41;5010100;28;4426;-54
2022/04/15 10:15:25;;;;;;;;;;;;;;;21.00;48.05;101874.63;5003013;28;4219;-54
2022/04/15 10:17:52;;;;;;;;;;;;;;;21.04;48.23;101878.50;4997544;28;4199;-57
2022/04/15 10:20:18;;;;;;;;;;;;;;;21.02;47.96;101877.63;4990588;28;4505;-56
2022/04/15 10:22:44;;;;;;;;;;;;;;;21.09;48.17;101868.72;5011964;28;4077;-59
2022/04/15 10:25:11;;;;;;;;;;;;;;;21.05;48.53;101880.03;5013678;28;4133;-51
2022/04/15 10:27:37;;;;;;;;;;;;;;;21.04;48.72;101877.75;4981565;28;4752;-55
2022/04/15 10:30:13;;;;;;;;;;;;;;;21.02;48.58;101871.88;5003832;28;4238;-54
2022/04/15 10:32:52;;;;;;;;;;;;;;;21.01;49.08;101876.91;4981079;28;4012;-53
2022/04/15 10:35:19;;;;;;;;;;;;;;;21.04;48.63;101872.00;5007513;28;4792;-55
2022/04/15 10:37:46;;;;;;;;;;;;;;;21.04;48.93;101880.66;5002363;28;4211;-54
2022/04/15 10:40:26;;;;;;;;;;;;;;;20.97;49.31;101885.28;5011079;28;4414;-55
2022/04/15 10:42:52;;;;;;;;;;;;;;;21.03;48.96;101882.03;5012751;28;5333;-53
2022/04/15 10:45:25;;;;;;;;;;;;;;;20.99;49.04;101888.28;5015072;28;4244;-53
2022/04/15 10:48:00;;;;;;;;;;;;;;;20.99;49.35;101887.53;5012945;28;4357;-54
2022/04/15 10:50:28;;;;;;;;;;;;;;;21.00;49.00;101889.03;5013908;28;4372;-51
2022/04/15 10:53:14;;;;;;;;;;;;;;;21.02;49.03;101883.41;5009433;28;4365;-53
2022/04/15 10:55:43;;;;;;;;;;;;;;;20.99;48.93;101882.53;5004235;28;4233;-53
2022/04/15 10:58:15;;;;;;;;;;;;;;;20.96;48.60;101883.81;5003668;28;4209;-54
2022/04/15 11:03:28;;;;;;;;;;;;;;;20.98;48.56;101886.03;5012492;28;4503;-52
2022/04/15 11:05:57;;;;;;;;;;;;;;;21.00;48.50;101889.03;5011432;28;4081;-51
2022/04/15 11:08:48;;;;;;;;;;;;;;;20.99;48.38;101891.16;5006066;28;4461;-55
2022/04/15 11:11:18;;;;;;;;;;;;;;;21.01;48.20;101899.19;4997063;28;4220;-53
2022/04/15 11:13:48;;;;;;;;;;;;;;;21.09;48.26;101905.41;5003664;28;4077;-53
2022/04/15 11:16:18;;;;;;;;;;;;;;;21.02;48.19;101897.81;5002753;28;4215;-52
2022/04/15 11:18:48;;;;;;;;;;;;;;;20.98;47.79;101894.66;5008442;28;4192;-51
2022/04/15 11:21:21;;;;;;;;;;;;;;;20.85;48.46;101902.59;5010276;28;5577;-54
2022/04/15 11:23:51;;;;;;;;;;;;;;;20.99;47.93;101901.94;5012553;28;4247;-55
2022/04/15 11:26:18;;;;;;;;;;;;;;;21.03;47.82;101911.59;5008021;28;4547;-57
2022/04/15 11:28:45;;;;;;;;;;;;;;;21.03;47.92;101905.81;4998616;28;5221;-53
2022/04/15 11:31:18;;;;;;;;;;;;;;;20.88;47.49;101912.84;5009324;28;4439;-57
2022/04/15 11:33:45;;;;;;;;;;;;;;;20.74;47.81;101914.84;5016743;28;4202;-58
2022/04/15 11:36:11;;;;;;;;;;;;;;;20.94;47.82;101909.59;5009284;28;4445;-53
2022/04/15 11:38:38;;;;;;;;;;;;;;;20.96;47.75;101912.59;5013321;28;4295;-55
2022/04/15 11:41:05;;;;;;;;;;;;;;;21.02;47.45;101909.31;5009698;28;4388;-54
2022/04/15 11:43:57;;;;;;;;;;;;;;;21.01;47.46;101919.34;5015832;28;4266;-57
2022/04/15 11:46:23;;;;;;;;;;;;;;;21.01;47.42;101913.59;5009346;28;5149;-55
2022/04/15 11:48:50;;;;;;;;;;;;;;;21.00;47.39;101912.06;5010900;28;4104;-52
2022/04/15 11:51:22;;;;;;;;;;;;;;;21.06;47.37;101921.09;5001703;28;4249;-54
2022/04/15 11:53:49;;;;;;;;;;;;;;;21.07;47.28;101916.81;5009446;28;4395;-52
2022/04/15 11:56:20;;;;;;;;;;;;;;;21.06;47.34;101921.84;5011023;28;4383;-50
2022/04/15 11:58:46;;;;;;;;;;;;;;;21.03;47.29;101928.84;5010657;28;4080;-53
2022/04/15 12:01:20;;;;;;;;;;;;;;;21.04;47.43;101936.09;5012037;28;6080;-52
2022/04/15 12:03:46;;;;;;;;;;;;;;;21.06;47.33;101926.84;4990030;28;4267;-53
2022/04/15 12:06:12;;;;;;;;;;;;;;;21.10;47.41;101932.84;5006005;28;4064;-54
2022/04/15 12:08:41;;;;;;;;;;;;;;;21.10;47.40;101932.84;5008955;28;5297;-54
2022/04/15 12:11:09;;;;;;;;;;;;;;;20.99;47.04;101945.13;5012380;28;4144;-52
2022/04/15 12:13:35;;;;;;;;;;;;;;;20.88;47.14;101946.63;4999745;28;4072;-56
2022/04/15 12:16:03;;;;;;;;;;;;;;;20.93;47.16;101937.59;5008669;28;4230;-60
2022/04/15 12:18:30;;;;;;;;;;;;;;;21.04;47.38;101947.63;5003001;28;4199;-55
2022/04/15 12:20:57;;;;;;;;;;;;;;;21.07;47.08;101945.63;5009687;28;4082;-56
2022/04/15 12:23:26;;;;;;;;;;;;;;;21.10;47.23;101944.38;5008480;28;4239;-59
2022/04/15 12:26:09;;;;;;;;;;;;;;;21.05;46.83;101942.63;5008574;28;4356;-55
2022/04/15 12:31:25;;;;;;;;;;;;;;;21.05;47.19;101948.38;5009211;28;5227;-51
2022/04/15 12:33:56;;;;;;;;;;;;;;;21.07;47.13;101952.16;5000937;28;4163;-50
2022/04/15 12:36:23;;;;;;;;;;;;;;;21.07;47.36;101942.75;5006876;28;5456;-52
2022/04/15 12:39:15;;;;;;;;;;;;;;;21.07;47.14;101957.13;5006180;28;4645;-52
2022/04/15 12:41:46;;;;;;;;;;;;;;;21.12;47.08;101953.16;5006026;28;4011;-53
2022/04/15 12:44:16;;;;;;;;;;;;;;;21.16;46.95;101956.25;5008588;28;5069;-54
2022/04/15 12:46:44;;;;;;;;;;;;;;;21.18;47.07;101952.75;5006467;28;5240;-51
2022/04/15 12:49:29;;;;;;;;;;;;;;;21.18;46.96;101958.50;5010254;28;5454;-51
2022/04/15 12:52:15;;;;;;;;;;;;;;;21.21;47.07;101960.91;5008016;28;4171;-51
2022/04/15 12:55:01;;;;;;;;;;;;;;;21.21;46.90;101960.91;5004513;28;4103;-53
2022/04/15 12:57:32;;;;;;;;;;;;;;;21.21;46.90;101948.59;5006902;28;4079;-54
2022/04/15 12:59:59;;;;;;;;;;;;;;;21.22;46.87;101971.03;5004876;28;3993;-52